createdAt,value
2023-05-02T00:02:04.209Z,22.04
2023-05-02T00:04:30.894Z,22.03
2023-05-02T00:06:57.637Z,22.03
2023-05-02T00:09:24.289Z,22.03
2023-05-02T00:11:51.060Z,22.00
2023-05-02T00:14:17.599Z,22.02
2023-05-02T00:16:44.397Z,22.02
2023-05-02T00:19:10.922Z,22.01
2023-05-02T00:21:37.631Z,22.01
2023-05-02T00:24:04.423Z,22.01
2023-05-02T00:26:31.052Z,22.01
2023-05-02T00:28:58.442Z,21.99
2023-05-02T00:31:25.139Z,21.98
2023-05-02T00:33:51.636Z,21.99
2023-05-02T00:36:20.146Z,21.99
2023-05-02T00:38:46.693Z,21.97
2023-05-02T00:41:14.001Z,21.98
2023-05-02T00:43:41.143Z,21.97
2023-05-02T00:46:08.447Z,21.97
2023-05-02T00:48:35.396Z,21.91
2023-05-02T00:51:08.691Z,21.97
2023-05-02T00:53:36.139Z,21.97
2023-05-02T00:56:02.890Z,21.96
2023-05-02T00:58:30.813Z,21.96
2023-05-02T01:01:12.679Z,21.95
2023-05-02T01:03:50.807Z,21.92
2023-05-02T01:06:29.693Z,21.94
2023-05-02T01:09:12.904Z,21.91
2023-05-02T01:11:58.587Z,21.83
2023-05-02T01:14:29.023Z,21.86
2023-05-02T01:16:58.843Z,21.93
2023-05-02T01:19:32.190Z,21.92
2023-05-02T01:22:01.896Z,21.82
2023-05-02T01:24:56.771Z,21.91
2023-05-02T01:27:41.772Z,21.90
2023-05-02T01:30:11.776Z,21.90
2023-05-02T01:32:41.374Z,21.89
2023-05-02T01:35:10.689Z,21.88
2023-05-02T01:37:39.694Z,21.88
2023-05-02T01:40:09.401Z,21.88
2023-05-02T01:42:38.486Z,21.89
2023-05-02T01:45:07.366Z,21.88
2023-05-02T01:47:36.698Z,21.87
2023-05-02T01:50:09.485Z,21.87
2023-05-02T01:52:37.232Z,21.84
2023-05-02T01:55:06.279Z,21.87
2023-05-02T01:57:33.137Z,21.85
2023-05-02T02:00:01.091Z,21.85
2023-05-02T02:02:29.686Z,21.82
2023-05-02T02:04:57.768Z,21.85
2023-05-02T02:07:24.573Z,21.84
2023-05-02T02:09:52.822Z,21.84
2023-05-02T02:12:32.040Z,21.83
2023-05-02T02:15:18.738Z,21.83
2023-05-02T02:17:50.366Z,21.83
2023-05-02T02:20:18.750Z,21.81
2023-05-02T02:22:49.087Z,21.81
2023-05-02T02:25:17.493Z,21.79
2023-05-02T02:27:44.239Z,21.81
2023-05-02T02:30:11.601Z,21.80
2023-05-02T02:32:38.185Z,21.80
2023-05-02T02:35:05.597Z,21.80
2023-05-02T02:37:37.700Z,21.81
2023-05-02T02:40:10.293Z,21.79
2023-05-02T02:42:56.048Z,21.78
2023-05-02T02:45:55.057Z,21.77
2023-05-02T02:48:42.950Z,21.78
2023-05-02T02:51:15.891Z,21.76
2023-05-02T02:54:26.901Z,21.76
2023-05-02T02:57:06.298Z,21.71
2023-05-02T02:59:41.838Z,21.72
2023-05-02T03:02:12.914Z,21.67
2023-05-02T03:04:42.514Z,21.71
2023-05-02T03:07:09.464Z,21.71
2023-05-02T03:09:47.335Z,21.67
2023-05-02T03:12:21.180Z,21.61
2023-05-02T03:14:49.986Z,21.55
2023-05-02T03:17:17.417Z,21.70
2023-05-02T03:19:44.051Z,21.71
2023-05-02T03:22:12.142Z,21.64
2023-05-02T03:24:39.540Z,21.71
2023-05-02T03:27:06.283Z,21.71
2023-05-02T03:29:39.857Z,21.66
2023-05-02T03:32:07.058Z,21.69
2023-05-02T03:34:35.102Z,21.70
2023-05-02T03:37:01.813Z,21.70
2023-05-02T03:39:29.445Z,21.63
2023-05-02T03:41:56.109Z,21.69
2023-05-02T03:44:24.263Z,21.70
2023-05-02T03:46:50.962Z,21.65
2023-05-02T03:49:19.550Z,21.70
2023-05-02T03:51:48.118Z,21.70
2023-05-02T03:54:19.672Z,21.70
2023-05-02T03:56:47.803Z,21.47
2023-05-02T03:59:23.123Z,21.70
2023-05-02T04:01:51.148Z,21.56
2023-05-02T04:04:23.720Z,21.63
2023-05-02T04:06:52.418Z,21.67
2023-05-02T04:09:23.530Z,21.67
2023-05-02T04:11:54.311Z,21.67
2023-05-02T04:14:21.392Z,21.66
2023-05-02T04:16:50.933Z,21.68
2023-05-02T04:19:22.882Z,21.68
2023-05-02T04:21:49.427Z,21.57
2023-05-02T04:24:17.073Z,21.63
2023-05-02T04:26:47.531Z,21.69
2023-05-02T04:29:15.165Z,21.69
2023-05-02T04:31:42.502Z,21.69
2023-05-02T04:34:10.318Z,21.69
2023-05-02T04:36:42.225Z,21.63
2023-05-02T04:39:12.483Z,21.58
2023-05-02T04:41:44.642Z,21.70
2023-05-02T04:44:11.275Z,21.71
2023-05-02T04:46:38.518Z,21.70
2023-05-02T04:49:08.531Z,21.71
2023-05-02T04:51:35.075Z,21.68
2023-05-02T04:54:01.801Z,21.71
2023-05-02T04:56:28.483Z,21.71
2023-05-02T04:58:55.164Z,21.71
2023-05-02T05:01:24.233Z,21.66
2023-05-02T05:03:51.085Z,21.74
2023-05-02T05:06:19.272Z,21.74
2023-05-02T05:08:46.551Z,21.74
2023-05-02T05:11:17.872Z,21.77
2023-05-02T05:13:44.483Z,21.71
2023-05-02T05:16:13.315Z,21.66
2023-05-02T05:18:43.000Z,21.77
2023-05-02T05:21:12.299Z,21.79
2023-05-02T05:23:39.856Z,21.79
2023-05-02T05:26:11.223Z,21.79
2023-05-02T05:28:39.669Z,21.81
2023-05-02T05:31:07.555Z,21.82
2023-05-02T05:33:35.713Z,21.83
2023-05-02T05:36:15.004Z,21.79
2023-05-02T05:38:41.737Z,21.74
2023-05-02T05:41:11.039Z,21.82
2023-05-02T05:43:41.343Z,21.90
2023-05-02T05:46:08.250Z,21.92
2023-05-02T05:48:36.606Z,21.85
2023-05-02T05:51:05.281Z,21.88
2023-05-02T05:53:32.458Z,21.98
2023-05-02T05:56:09.007Z,22.01
2023-05-02T05:58:37.354Z,22.00
2023-05-02T06:01:04.488Z,22.03
2023-05-02T06:03:32.025Z,22.06
2023-05-02T06:05:58.798Z,21.99
2023-05-02T06:08:28.550Z,22.05
2023-05-02T06:10:55.266Z,22.11
2023-05-02T06:13:22.108Z,22.13
2023-05-02T06:15:50.025Z,22.15
2023-05-02T06:18:16.852Z,22.16
2023-05-02T06:20:43.547Z,22.15
2023-05-02T06:23:10.102Z,22.09
2023-05-02T06:25:39.864Z,22.20
2023-05-02T06:28:07.111Z,22.21
2023-05-02T06:30:33.824Z,22.23
2023-05-02T06:33:00.717Z,22.24
2023-05-02T06:35:27.436Z,22.25
2023-05-02T06:37:53.966Z,22.26
2023-05-02T06:40:20.645Z,22.28
2023-05-02T06:42:47.252Z,22.19
2023-05-02T06:45:15.488Z,22.30
2023-05-02T06:47:42.147Z,22.31
2023-05-02T06:50:09.329Z,22.21
2023-05-02T06:52:35.851Z,22.32
2023-05-02T06:55:02.563Z,22.27
2023-05-02T06:57:29.150Z,22.36
2023-05-02T06:59:56.063Z,22.34
2023-05-02T07:02:22.764Z,22.28
2023-05-02T07:04:49.417Z,22.39
2023-05-02T07:07:18.800Z,22.40
2023-05-02T07:09:45.673Z,22.34
2023-05-02T07:12:12.169Z,22.34
2023-05-02T07:14:39.382Z,22.44
2023-05-02T07:17:06.459Z,22.41
2023-05-02T07:19:33.273Z,22.45
2023-05-02T07:21:59.921Z,22.30
2023-05-02T07:24:26.610Z,22.34
2023-05-02T07:26:53.122Z,22.47
2023-05-02T07:29:19.742Z,22.27
2023-05-02T07:31:46.337Z,22.47
2023-05-02T07:34:12.942Z,22.39
2023-05-02T07:36:39.743Z,22.48
2023-05-02T07:39:06.463Z,22.54
2023-05-02T07:41:33.054Z,22.51
2023-05-02T07:44:01.387Z,22.55
2023-05-02T07:46:28.121Z,22.56
2023-05-02T07:48:55.744Z,22.56
2023-05-02T07:51:22.537Z,22.57
2023-05-02T07:53:53.670Z,22.47
2023-05-02T07:56:21.205Z,22.57
2023-05-02T07:58:47.706Z,22.60
2023-05-02T08:01:14.383Z,22.53
2023-05-02T08:03:45.172Z,22.64
2023-05-02T08:06:13.197Z,22.63
2023-05-02T08:08:39.806Z,22.68
2023-05-02T08:11:06.874Z,22.68
2023-05-02T08:13:33.492Z,22.55
2023-05-02T08:16:00.370Z,22.68
2023-05-02T08:18:27.465Z,22.69
2023-05-02T08:20:56.277Z,22.68
2023-05-02T08:23:22.776Z,22.70
2023-05-02T08:25:49.565Z,22.70
2023-05-02T08:28:16.154Z,22.72
2023-05-02T08:30:45.093Z,22.73
2023-05-02T08:33:11.677Z,22.75
2023-05-02T08:35:38.299Z,22.75
2023-05-02T08:38:04.915Z,22.77
2023-05-02T08:40:41.466Z,22.78
2023-05-02T08:43:11.693Z,22.79
2023-05-02T08:45:45.394Z,22.79
2023-05-02T08:48:13.757Z,22.80
2023-05-02T08:50:43.569Z,22.42
2023-05-02T08:53:11.860Z,22.73
2023-05-02T08:55:40.502Z,22.82
2023-05-02T08:58:10.817Z,22.83
2023-05-02T09:00:42.316Z,22.83
2023-05-02T09:03:09.026Z,22.86
2023-05-02T09:05:41.585Z,22.88
2023-05-02T09:08:09.286Z,22.88
2023-05-02T09:10:39.117Z,22.90
2023-05-02T09:13:38.136Z,22.91
2023-05-02T09:16:19.993Z,22.92
2023-05-02T09:18:47.528Z,22.94
2023-05-02T09:21:22.469Z,22.91
2023-05-02T09:23:58.966Z,22.95
2023-05-02T09:26:34.435Z,22.98
2023-05-02T09:29:03.570Z,22.99
2023-05-02T09:34:19.013Z,23.01
2023-05-02T09:36:56.202Z,23.02
2023-05-02T09:39:26.105Z,23.05
2023-05-02T09:41:53.462Z,23.06
2023-05-02T09:44:22.665Z,23.05
2023-05-02T09:46:54.074Z,23.02
2023-05-02T09:49:42.970Z,23.05
2023-05-02T09:52:13.458Z,23.09
2023-05-02T09:54:40.299Z,23.10
2023-05-02T09:57:07.362Z,23.06
2023-05-02T09:59:36.922Z,23.03
2023-05-02T10:02:04.773Z,23.12
2023-05-02T10:04:32.627Z,23.14
2023-05-02T10:07:00.098Z,23.12
2023-05-02T10:09:32.092Z,23.08
2023-05-02T10:12:06.685Z,23.18
2023-05-02T10:14:41.351Z,23.21
2023-05-02T10:17:14.285Z,23.23
2023-05-02T10:19:54.304Z,23.21
2023-05-02T10:22:25.072Z,23.27
2023-05-02T10:24:53.428Z,23.30
2023-05-02T10:27:20.039Z,23.33
2023-05-02T10:29:47.634Z,23.25
2023-05-02T10:32:17.144Z,23.33
2023-05-02T10:34:44.415Z,23.29
2023-05-02T10:37:12.464Z,23.25
2023-05-02T10:39:39.229Z,23.31
2023-05-02T10:42:06.955Z,23.31
2023-05-02T10:44:37.699Z,23.31
2023-05-02T10:47:26.869Z,23.31
2023-05-02T10:49:56.729Z,23.31
2023-05-02T10:52:46.731Z,23.31
2023-05-02T10:55:19.383Z,23.30
2023-05-02T10:58:01.116Z,23.31
2023-05-02T11:00:30.286Z,23.31
2023-05-02T11:02:57.439Z,23.30
2023-05-02T11:08:20.268Z,23.36
2023-05-02T11:10:48.907Z,23.38
2023-05-02T11:13:16.184Z,23.40
2023-05-02T11:16:12.372Z,23.41
2023-05-02T11:18:58.941Z,23.41
2023-05-02T11:21:32.864Z,23.42
2023-05-02T11:24:37.138Z,23.42
2023-05-02T11:27:30.167Z,23.41
2023-05-02T11:30:00.548Z,23.41
2023-05-02T11:32:49.758Z,23.42
2023-05-02T11:35:22.983Z,23.39
2023-05-02T11:38:12.662Z,23.29
2023-05-02T11:40:39.272Z,23.43
2023-05-02T11:43:16.614Z,23.43
2023-05-02T11:45:43.775Z,23.47
2023-05-02T11:48:17.354Z,23.48
2023-05-02T11:50:58.177Z,23.51
2023-05-02T11:53:26.711Z,23.52
2023-05-02T11:55:58.176Z,23.54
2023-05-02T11:58:30.175Z,23.54
2023-05-02T12:00:57.215Z,23.55
2023-05-02T12:03:23.995Z,23.56
2023-05-02T12:05:52.328Z,23.42
2023-05-02T12:08:20.781Z,23.53
2023-05-02T12:10:47.609Z,23.58
2023-05-02T12:13:14.555Z,23.59
2023-05-02T12:15:41.983Z,23.59
2023-05-02T12:18:08.989Z,23.60
2023-05-02T12:20:38.634Z,23.60
2023-05-02T12:23:10.163Z,23.59
2023-05-02T12:25:39.179Z,23.60
2023-05-02T12:28:06.057Z,23.62
2023-05-02T12:30:33.162Z,23.62
2023-05-02T12:33:01.724Z,23.51
2023-05-02T12:35:30.341Z,23.63
2023-05-02T12:38:13.056Z,23.61
2023-05-02T12:40:57.781Z,23.60
2023-05-02T12:43:24.772Z,23.49
2023-05-02T12:46:09.733Z,23.58
2023-05-02T12:48:36.872Z,23.58
2023-05-02T12:51:03.502Z,23.58
2023-05-02T12:53:44.506Z,23.59
2023-05-02T12:56:11.901Z,23.60
2023-05-02T12:58:46.494Z,23.62
2023-05-02T13:01:15.074Z,23.59
2023-05-02T13:03:43.409Z,23.53
2023-05-02T13:06:11.079Z,23.49
2023-05-02T13:08:37.672Z,23.46
2023-05-02T13:13:32.551Z,23.42
2023-05-02T13:15:59.277Z,23.38
2023-05-02T13:18:28.159Z,23.29
2023-05-02T13:20:55.382Z,23.09
2023-05-02T13:23:22.089Z,23.07
2023-05-02T13:25:48.616Z,23.18
2023-05-02T13:28:15.424Z,23.18
2023-05-02T13:30:43.173Z,23.24
2023-05-02T13:33:09.775Z,23.24
2023-05-02T13:35:36.814Z,23.19
2023-05-02T13:38:03.954Z,23.24
2023-05-02T13:40:30.597Z,23.24
2023-05-02T13:42:57.525Z,23.11
2023-05-02T13:45:24.211Z,23.26
2023-05-02T13:47:50.831Z,23.20
2023-05-02T13:50:17.517Z,23.23
2023-05-02T13:52:44.853Z,23.25
2023-05-02T13:55:12.697Z,23.26
2023-05-02T13:57:39.264Z,23.24
2023-05-02T14:00:09.534Z,23.22
2023-05-02T14:02:36.653Z,23.18
2023-05-02T14:05:03.537Z,23.16
2023-05-02T14:07:30.515Z,23.13
2023-05-02T14:09:57.357Z,23.09
2023-05-02T14:12:24.051Z,23.03
2023-05-02T14:14:50.612Z,23.06
2023-05-02T14:17:17.184Z,23.06
2023-05-02T14:19:43.708Z,23.07
2023-05-02T14:22:10.398Z,23.07
2023-05-02T14:24:36.929Z,23.06
2023-05-02T14:27:04.688Z,23.05
2023-05-02T14:29:31.354Z,23.03
2023-05-02T14:31:58.121Z,23.00
2023-05-02T14:34:26.923Z,22.94
2023-05-02T14:36:53.661Z,22.93
2023-05-02T14:39:20.364Z,22.93
2023-05-02T14:41:47.451Z,22.95
2023-05-02T14:44:13.964Z,22.96
2023-05-02T14:46:40.641Z,23.02
2023-05-02T14:49:07.354Z,23.05
2023-05-02T14:51:33.990Z,23.07
2023-05-02T14:54:00.650Z,23.09
2023-05-02T14:56:28.157Z,23.12
2023-05-02T14:58:54.648Z,23.13
2023-05-02T15:01:22.534Z,23.16
2023-05-02T15:04:05.381Z,23.19
2023-05-02T15:06:33.847Z,23.16
2023-05-02T15:09:01.562Z,23.25
2023-05-02T15:11:28.126Z,23.28
2023-05-02T15:13:56.820Z,23.31
2023-05-02T15:16:27.120Z,23.35
2023-05-02T15:18:54.198Z,23.29
2023-05-02T15:21:23.736Z,23.36
2023-05-02T15:23:50.772Z,23.36
2023-05-02T15:26:17.571Z,23.36
2023-05-02T15:28:44.560Z,23.37
2023-05-02T15:31:11.210Z,23.38
2023-05-02T15:33:38.618Z,23.38
2023-05-02T15:36:05.404Z,23.39
2023-05-02T15:38:34.016Z,23.42
2023-05-02T15:41:00.739Z,23.44
2023-05-02T15:43:28.186Z,23.45
2023-05-02T15:48:12.613Z,23.47
2023-05-02T15:50:39.221Z,23.49
2023-05-02T15:53:05.933Z,23.47
2023-05-02T15:55:32.572Z,23.46
2023-05-02T15:57:59.211Z,23.33
2023-05-02T16:00:26.671Z,23.44
2023-05-02T16:02:53.337Z,23.43
2023-05-02T16:05:20.340Z,23.43
2023-05-02T16:07:46.874Z,23.42
2023-05-02T16:10:13.669Z,23.41
2023-05-02T16:12:40.186Z,23.40
2023-05-02T16:15:08.275Z,23.27
2023-05-02T16:17:34.847Z,23.42
2023-05-02T16:20:02.597Z,23.42
2023-05-02T16:22:29.495Z,23.42
2023-05-02T16:24:56.315Z,23.42
2023-05-02T16:27:23.582Z,23.41
2023-05-02T16:29:50.978Z,23.40
2023-05-02T16:32:17.840Z,23.39
2023-05-02T16:34:44.378Z,23.38
2023-05-02T16:37:11.458Z,23.35
2023-05-02T16:39:39.902Z,23.36
2023-05-02T16:44:32.843Z,23.32
2023-05-02T16:46:59.435Z,23.31
2023-05-02T16:49:29.108Z,23.29
2023-05-02T16:51:56.063Z,23.26
2023-05-02T16:54:22.738Z,23.22
2023-05-02T16:56:49.285Z,23.31
2023-05-02T16:59:16.045Z,23.31
2023-05-02T17:01:42.669Z,23.31
2023-05-02T17:04:09.838Z,23.31
2023-05-02T17:06:36.387Z,23.30
2023-05-02T17:09:04.018Z,23.29
2023-05-02T17:11:30.625Z,23.28
2023-05-02T17:13:57.197Z,23.27
2023-05-02T17:16:23.898Z,23.27
2023-05-02T17:18:50.926Z,23.12
2023-05-02T17:21:17.549Z,23.25
2023-05-02T17:23:44.633Z,23.23
2023-05-02T17:26:16.879Z,23.25
2023-05-02T17:28:44.465Z,23.24
2023-05-02T17:31:11.394Z,23.24
2023-05-02T17:33:37.984Z,23.22
2023-05-02T17:36:07.338Z,23.20
2023-05-02T17:38:33.927Z,23.20
2023-05-02T17:41:00.446Z,23.14
2023-05-02T17:43:27.014Z,23.22
2023-05-02T17:45:53.629Z,23.21
2023-05-02T17:48:20.325Z,22.93
2023-05-02T17:50:46.896Z,23.19
2023-05-02T17:53:15.443Z,23.19
2023-05-02T17:55:42.282Z,23.16
2023-05-02T17:58:08.991Z,23.19
2023-05-02T18:00:35.552Z,23.19
2023-05-02T18:03:02.601Z,23.14
2023-05-02T18:05:29.339Z,23.19
2023-05-02T18:07:56.193Z,23.19
2023-05-02T18:10:22.715Z,23.18
2023-05-02T18:12:49.567Z,23.17
2023-05-02T18:15:16.064Z,23.07
2023-05-02T18:17:42.742Z,23.18
2023-05-02T18:20:12.512Z,22.99
2023-05-02T18:22:39.077Z,23.17
2023-05-02T18:25:06.256Z,23.17
2023-05-02T18:27:33.470Z,23.17
2023-05-02T18:30:00.099Z,23.10
2023-05-02T18:32:26.954Z,23.16
2023-05-02T18:34:56.272Z,23.16
2023-05-02T18:37:31.275Z,23.15
2023-05-02T18:39:59.038Z,23.15
2023-05-02T18:42:27.994Z,23.15
2023-05-02T18:44:58.778Z,23.11
2023-05-02T18:47:25.748Z,23.15
2023-05-02T18:49:56.337Z,23.14
2023-05-02T18:52:26.178Z,23.11
2023-05-02T18:54:55.195Z,23.13
2023-05-02T18:57:21.885Z,23.11
2023-05-02T18:59:48.497Z,23.06
2023-05-02T19:02:18.617Z,23.12
2023-05-02T19:04:45.573Z,23.10
2023-05-02T19:07:12.794Z,23.08
2023-05-02T19:09:42.990Z,23.06
2023-05-02T19:12:09.726Z,23.01
2023-05-02T19:14:39.525Z,23.10
2023-05-02T19:17:06.618Z,23.08
2023-05-02T19:19:33.213Z,23.10
2023-05-02T19:22:00.012Z,23.10
2023-05-02T19:24:26.934Z,23.02
2023-05-02T19:26:53.674Z,23.10
2023-05-02T19:29:20.672Z,23.07
2023-05-02T19:31:47.323Z,23.06
2023-05-02T19:34:13.842Z,23.01
2023-05-02T19:36:40.515Z,23.08
2023-05-02T19:39:07.783Z,23.08
2023-05-02T19:41:34.787Z,23.10
2023-05-02T19:44:04.447Z,23.08
2023-05-02T19:46:31.211Z,23.08
2023-05-02T19:48:57.924Z,23.09
2023-05-02T19:51:29.250Z,23.07
2023-05-02T19:53:58.620Z,23.09
2023-05-02T19:56:27.400Z,23.02
2023-05-02T19:58:54.842Z,23.10
2023-05-02T20:01:21.558Z,23.12
2023-05-02T20:03:48.313Z,23.07
2023-05-02T20:06:15.099Z,22.91
2023-05-02T20:08:41.788Z,23.01
2023-05-02T20:11:08.513Z,23.16
2023-05-02T20:13:35.038Z,23.07
2023-05-02T20:16:04.694Z,23.13
2023-05-02T20:18:31.491Z,23.19
2023-05-02T20:20:58.381Z,23.20
2023-05-02T20:23:24.923Z,23.14
2023-05-02T20:25:51.587Z,23.21
2023-05-02T20:28:18.103Z,23.22
2023-05-02T20:30:44.721Z,23.22
2023-05-02T20:33:16.057Z,23.22
2023-05-02T20:35:43.270Z,23.22
2023-05-02T20:38:09.981Z,23.22
2023-05-02T20:40:42.798Z,23.22
2023-05-02T20:43:09.449Z,23.23
2023-05-02T20:45:36.049Z,23.22
2023-05-02T20:48:03.107Z,23.23
2023-05-02T20:50:29.720Z,23.24
2023-05-02T20:52:56.762Z,23.22
2023-05-02T20:55:24.257Z,23.25
2023-05-02T20:57:52.798Z,23.25
2023-05-02T21:00:21.859Z,23.25
2023-05-02T21:02:48.460Z,23.25
2023-05-02T21:05:15.616Z,23.21
2023-05-02T21:07:42.275Z,23.24
2023-05-02T21:10:10.842Z,23.22
2023-05-02T21:12:37.384Z,23.24
2023-05-02T21:15:04.275Z,23.25
2023-05-02T21:17:30.935Z,23.21
2023-05-02T21:19:57.902Z,23.25
2023-05-02T21:22:24.490Z,23.16
2023-05-02T21:24:51.226Z,23.24
2023-05-02T21:27:17.987Z,23.26
2023-05-02T21:29:44.764Z,23.26
2023-05-02T21:32:11.478Z,23.26
2023-05-02T21:34:38.274Z,23.25
2023-05-02T21:37:04.932Z,23.17
2023-05-02T21:39:31.623Z,23.23
2023-05-02T21:41:58.221Z,23.25
2023-05-02T21:44:24.834Z,23.25
2023-05-02T21:46:51.620Z,23.01
2023-05-02T21:49:18.168Z,23.25
2023-05-02T21:51:45.031Z,23.24
2023-05-02T21:54:11.660Z,23.16
2023-05-02T21:56:38.479Z,23.24
2023-05-02T21:59:05.019Z,23.25
2023-05-02T22:01:31.631Z,23.20
2023-05-02T22:03:58.547Z,23.23
2023-05-02T22:06:25.316Z,23.23
2023-05-02T22:08:52.792Z,23.15
2023-05-02T22:11:21.509Z,23.22
2023-05-02T22:13:48.411Z,23.16
2023-05-02T22:16:15.255Z,23.23
2023-05-02T22:18:46.644Z,23.23
2023-05-02T22:21:13.297Z,23.22
2023-05-02T22:23:39.961Z,23.20
2023-05-02T22:26:06.565Z,23.20
2023-05-02T22:28:33.358Z,23.22
2023-05-02T22:30:59.964Z,23.21
2023-05-02T22:33:26.757Z,23.21
2023-05-02T22:35:53.715Z,23.21
2023-05-02T22:38:20.263Z,23.18
2023-05-02T22:40:46.855Z,23.14
2023-05-02T22:43:13.373Z,23.15
2023-05-02T22:45:41.631Z,22.96
2023-05-02T22:48:08.244Z,23.17
2023-05-02T22:50:34.885Z,23.22
2023-05-02T22:53:03.811Z,23.22
2023-05-02T22:55:30.722Z,23.17
2023-05-02T22:57:58.017Z,23.18
2023-05-02T23:00:25.670Z,23.23
2023-05-02T23:02:52.311Z,23.23
2023-05-02T23:05:19.467Z,23.21
2023-05-02T23:07:46.196Z,23.19
2023-05-02T23:10:12.768Z,23.22
2023-05-02T23:12:43.216Z,23.14
2023-05-02T23:15:10.363Z,23.10
2023-05-02T23:17:41.256Z,23.13
2023-05-02T23:20:12.628Z,23.21
2023-05-02T23:22:46.048Z,23.20
2023-05-02T23:25:14.925Z,23.20
2023-05-02T23:27:41.465Z,23.19
2023-05-02T23:30:08.706Z,22.88
2023-05-02T23:32:35.480Z,23.19
2023-05-02T23:35:03.240Z,23.16
2023-05-02T23:37:29.803Z,23.18
2023-05-02T23:39:58.136Z,23.17
2023-05-02T23:42:24.735Z,23.14
2023-05-02T23:44:53.631Z,23.18
2023-05-02T23:47:21.935Z,23.19
2023-05-02T23:49:48.577Z,23.18
2023-05-02T23:52:15.062Z,23.15
2023-05-02T23:54:41.928Z,23.18
2023-05-02T23:57:09.239Z,23.17
2023-05-02T23:59:35.887Z,23.18
